Time;durP1;ratioP1;P1;durP2;ratioP2;P2;SDS_P1;SDS_P2;PMS_P1;PMS_P2;Temp;Humidity;BMP_temperature;BMP_pressure;BME280_temperature;BME280_humidity;BME280_pressure;Samples;Min_cycle;Max_cycle;Signal;HPM_P1;HPM_P2
2021/05/13 00:01:56;;;;;;;3.92;3.53;;;;;;;16.58;100.00;100253.53;5015799;28;20065;-74
2021/05/13 00:04:42;;;;;;;5.03;3.00;;;;;;;16.61;100.00;100253.41;5015573;28;20117;-74
2021/05/13 00:07:27;;;;;;;5.47;3.08;;;;;;;16.18;100.00;100251.09;5015948;28;20522;-74
2021/05/13 00:10:17;;;;;;;5.25;3.03;;;;;;;16.47;100.00;100247.09;5016630;28;20057;-74
2021/05/13 00:13:04;;;;;;;4.80;2.92;;;;;;;16.27;100.00;100240.06;5015488;28;20123;-74
2021/05/13 00:15:49;;;;;;;5.40;2.95;;;;;;;16.50;100.00;100254.84;5016096;28;20040;-74
2021/05/13 00:18:35;;;;;;;6.07;3.05;;;;;;;16.56;100.00;100238.69;5015269;28;20053;-74
2021/05/13 00:21:21;;;;;;;6.30;3.20;;;;;;;16.07;100.00;100239.31;5015503;28;20041;-74
2021/05/13 00:24:09;;;;;;;4.50;2.90;;;;;;;15.86;100.00;100227.97;5015171;28;20030;-75
2021/05/13 00:26:59;;;;;;;5.88;3.28;;;;;;;15.97;100.00;100224.81;5016757;28;20025;-75
2021/05/13 00:29:44;;;;;;;3.20;2.90;;;;;;;15.68;100.00;100233.25;5015755;28;20466;-75
2021/05/13 00:32:30;;;;;;;3.67;3.13;;;;;;;16.03;100.00;100224.53;5015651;28;20042;-75
2021/05/13 00:35:18;;;;;;;5.38;3.15;;;;;;;16.41;100.00;100215.63;5015058;28;20120;-75
2021/05/13 00:38:04;;;;;;;5.97;3.15;;;;;;;16.40;100.00;100213.91;5016238;28;20044;-74
2021/05/13 00:40:53;;;;;;;5.03;3.00;;;;;;;16.45;100.00;100198.69;5001870;28;20319;-74
2021/05/13 00:43:39;;;;;;;3.70;2.92;;;;;;;16.51;100.00;100182.53;5001887;28;20095;-74
2021/05/13 00:46:25;;;;;;;5.80;2.80;;;;;;;16.15;100.00;100193.06;5015749;28;20434;-74
2021/05/13 00:49:14;;;;;;;4.57;3.30;;;;;;;16.53;100.00;100180.66;5015437;28;20022;-75
2021/05/13 00:52:00;;;;;;;4.00;2.70;;;;;;;16.22;100.00;100188.34;5016137;28;20043;-74
2021/05/13 00:54:46;;;;;;;3.53;2.90;;;;;;;16.36;100.00;100186.72;5015327;28;20062;-74
2021/05/13 00:57:32;;;;;;;3.92;2.80;;;;;;;16.20;100.00;100187.56;5014924;28;20060;-74
2021/05/13 01:00:44;;;;;;;3.75;2.95;;;;;;;16.22;100.00;100188.34;5014570;28;20062;-75
2021/05/13 01:03:24;;;;;;;5.10;2.95;;;;;;;16.48;100.00;100177.38;5015366;28;20438;-74
2021/05/13 01:06:12;;;;;;;3.83;2.72;;;;;;;16.56;100.00;100178.69;5001249;28;20025;-74
2021/05/13 01:08:58;;;;;;;3.08;2.78;;;;;;;16.55;100.00;100176.16;5015911;28;20442;-74
2021/05/13 01:11:44;;;;;;;6.72;3.00;;;;;;;16.19;100.00;100184.06;5014473;28;20034;-75
2021/05/13 01:17:26;;;;;;;3.05;2.53;;;;;;;16.40;100.00;100192.75;5014870;28;20507;-75
2021/05/13 01:20:12;;;;;;;3.00;2.65;;;;;;;16.70;100.00;100188.59;5015596;28;20018;-74
2021/05/13 01:22:59;;;;;;;3.72;2.78;;;;;;;16.96;100.00;100190.78;5014224;28;20029;-75
2021/05/13 01:25:52;;;;;;;4.50;3.17;;;;;;;16.87;100.00;100193.88;5015681;28;20356;-75
2021/05/13 01:28:38;;;;;;;5.50;3.13;;;;;;;17.03;100.00;100194.78;5000651;28;20030;-75
2021/05/13 01:31:24;;;;;;;9.93;3.30;;;;;;;17.09;100.00;100197.13;5015949;28;20026;-75
2021/05/13 01:34:10;;;;;;;5.85;2.80;;;;;;;16.36;100.00;100193.81;5014866;28;20030;-75
2021/05/13 01:36:56;;;;;;;3.25;2.90;;;;;;;16.65;100.00;100185.31;5014120;28;20049;-74
2021/05/13 01:39:42;;;;;;;3.38;2.85;;;;;;;16.48;100.00;100185.31;5013976;28;20062;-75
2021/05/13 01:42:27;;;;;;;3.83;3.10;;;;;;;16.44;100.00;100184.59;5015065;28;20113;-74
2021/05/13 01:45:13;;;;;;;5.65;3.20;;;;;;;16.69;100.00;100181.59;5014386;28;20029;-74
2021/05/13 01:48:03;;;;;;;5.82;2.95;;;;;;;16.58;100.00;100173.34;5015158;28;20034;-75
2021/05/13 01:50:50;;;;;;;4.88;3.15;;;;;;;16.37;100.00;100185.81;5000834;28;20037;-74
2021/05/13 01:53:38;;;;;;;3.65;3.00;;;;;;;16.46;100.00;100182.75;4999987;28;20033;-74
2021/05/13 01:56:24;;;;;;;3.25;2.83;;;;;;;16.90;100.00;100184.00;5013634;28;20030;-74
2021/05/13 01:59:10;;;;;;;6.53;3.58;;;;;;;16.84;100.00;100186.13;5015156;28;20530;-74
2021/05/13 02:01:58;;;;;;;4.38;3.13;;;;;;;16.38;100.00;100184.00;5013758;28;20054;-74
2021/05/13 02:04:43;;;;;;;4.30;3.28;;;;;;;16.69;100.00;100185.09;5013959;28;20040;-74
2021/05/13 02:07:29;;;;;;;5.45;3.30;;;;;;;16.65;100.00;100180.91;5014172;28;20029;-74
2021/05/13 02:10:16;;;;;;;4.10;2.97;;;;;;;16.60;100.00;100182.06;5014364;28;20104;-75
2021/05/13 02:13:01;;;;;;;3.50;3.13;;;;;;;16.67;100.00;100173.72;5000432;28;20021;-74
2021/05/13 02:15:47;;;;;;;4.63;2.88;;;;;;;16.58;100.00;100183.91;5014099;28;20351;-74
2021/05/13 02:18:33;;;;;;;4.68;3.33;;;;;;;16.94;100.00;100184.69;5000286;28;20454;-75
2021/05/13 02:21:19;;;;;;;4.68;3.40;;;;;;;16.44;100.00;100192.53;5013999;28;20176;-74
2021/05/13 02:24:05;;;;;;;6.93;3.47;;;;;;;16.19;100.00;100192.00;5013555;28;20109;-75
2021/05/13 02:26:50;;;;;;;4.80;3.00;;;;;;;16.41;100.00;100194.47;5014961;28;20099;-74
2021/05/13 02:29:36;;;;;;;3.47;3.17;;;;;;;16.57;100.00;100190.16;5017630;28;20030;-74
2021/05/13 02:32:22;;;;;;;4.72;2.80;;;;;;;16.31;100.00;100193.19;5017231;28;20124;-74
2021/05/13 02:35:09;;;;;;;3.75;3.20;;;;;;;16.49;100.00;100197.59;5017673;28;20438;-74
2021/05/13 02:37:55;;;;;;;3.13;2.83;;;;;;;16.66;100.00;100194.97;5004058;28;20029;-74
2021/05/13 02:40:41;;;;;;;4.00;2.97;;;;;;;16.42;100.00;100193.53;5017049;28;20048;-75
2021/05/13 02:43:27;;;;;;;4.03;2.90;;;;;;;16.27;100.00;100192.47;5017150;28;20430;-75
2021/05/13 02:46:12;;;;;;;4.25;3.03;;;;;;;16.12;100.00;100190.56;5003842;28;20036;-75
2021/05/13 02:48:58;;;;;;;5.07;2.85;;;;;;;16.41;100.00;100187.41;5017324;28;20049;-75
2021/05/13 02:51:44;;;;;;;3.88;3.28;;;;;;;16.54;100.00;100190.28;5017412;28;20412;-74
2021/05/13 02:54:30;;;;;;;4.70;3.25;;;;;;;16.62;100.00;100193.41;5016690;28;20034;-74
2021/05/13 02:57:16;;;;;;;3.42;3.10;;;;;;;16.65;100.00;100187.97;5016933;28;20034;-74
2021/05/13 03:00:17;;;;;;;4.55;2.83;;;;;;;16.80;100.00;100193.31;5017205;28;20026;-75
2021/05/13 03:03:03;;;;;;;4.70;3.10;;;;;;;16.79;100.00;100193.41;5016785;28;20042;-74
2021/05/13 03:05:51;;;;;;;4.28;3.35;;;;;;;16.81;100.00;100203.00;5016679;28;20065;-74
2021/05/13 03:08:37;;;;;;;4.13;3.25;;;;;;;16.85;100.00;100199.28;5016423;28;20022;-75
2021/05/13 03:11:25;;;;;;;5.40;3.50;;;;;;;16.35;100.00;100210.63;5016702;28;20375;-74
2021/05/13 03:14:11;;;;;;;7.03;3.53;;;;;;;16.46;100.00;100214.47;5016160;28;20338;-74
2021/05/13 03:16:57;;;;;;;7.20;3.42;;;;;;;16.49;100.00;100221.41;5015882;28;20045;-73
2021/05/13 03:19:46;;;;;;;3.75;3.28;;;;;;;16.60;100.00;100221.75;5002540;28;20439;-75
2021/05/13 03:22:31;;;;;;;6.10;3.10;;;;;;;16.67;100.00;100226.63;5015834;28;20030;-74
2021/05/13 03:25:24;;;;;;;5.55;3.17;;;;;;;16.81;100.00;100218.88;5002330;28;20040;-74
2021/05/13 03:28:10;;;;;;;3.65;3.00;;;;;;;16.14;100.00;100232.78;5016014;28;20028;-74
2021/05/13 03:30:56;;;;;;;4.43;2.95;;;;;;;16.77;100.00;100232.31;5015522;28;20041;-74
2021/05/13 03:33:42;;;;;;;4.38;3.28;;;;;;;17.09;100.00;100224.47;5016735;28;20022;-75
2021/05/13 03:36:30;;;;;;;3.78;2.92;;;;;;;16.87;100.00;100230.91;5015796;28;20034;-74
2021/05/13 03:39:16;;;;;;;9.15;3.28;;;;;;;16.92;100.00;100234.19;5014893;28;20029;-75
2021/05/13 03:42:02;;;;;;;3.80;3.10;;;;;;;16.39;100.00;100222.78;5015935;28;20095;-74
2021/05/13 03:44:49;;;;;;;3.00;2.63;;;;;;;16.68;100.00;100209.81;5001752;28;20032;-74
2021/05/13 03:47:34;;;;;;;4.65;3.10;;;;;;;17.07;100.00;100205.16;5015902;28;20088;-74
2021/05/13 03:50:20;;;;;;;4.05;3.00;;;;;;;16.78;100.00;100211.09;5001870;28;20022;-74
2021/05/13 03:53:07;;;;;;;7.20;3.60;;;;;;;16.85;100.00;100211.63;5015728;28;20030;-74
2021/05/13 03:55:53;;;;;;;7.10;3.50;;;;;;;16.71;100.00;100219.38;5002028;28;20411;-74
2021/05/13 03:58:49;;;;;;;5.18;3.58;;;;;;;17.08;100.00;100220.09;5015714;28;20052;-73
2021/05/13 04:04:32;;;;;;;3.88;3.10;;;;;;;17.66;100.00;100231.16;5015953;28;20037;-75
2021/05/13 04:07:18;;;;;;;8.10;3.25;;;;;;;17.28;100.00;100235.78;5015619;28;20370;-74
2021/05/13 04:10:08;;;;;;;5.05;3.28;;;;;;;17.69;100.00;100228.34;5016150;28;20048;-74
2021/05/13 04:12:56;;;;;;;5.05;3.10;;;;;;;17.73;100.00;100225.44;5016347;28;20042;-74
2021/05/13 04:15:43;;;;;;;6.10;3.40;;;;;;;17.09;100.00;100236.84;5016699;28;20318;-74
2021/05/13 04:18:29;;;;;;;6.68;3.78;;;;;;;16.76;100.00;100241.19;5016214;28;20026;-75
2021/05/13 04:21:15;;;;;;;7.28;3.67;;;;;;;17.29;100.00;100244.59;5015793;28;20461;-74
2021/05/13 04:24:01;;;;;;;7.10;3.70;;;;;;;17.53;100.00;100244.19;5001722;28;20073;-75
2021/05/13 04:26:46;;;;;;;6.70;3.75;;;;;;;17.06;100.00;100245.81;5002386;28;20026;-75
2021/05/13 04:29:32;;;;;;;5.25;3.75;;;;;;;17.53;100.00;100249.47;5014882;28;20030;-75
2021/05/13 04:32:18;;;;;;;5.22;3.60;;;;;;;17.21;100.00;100252.97;5015063;28;20097;-74
2021/05/13 04:35:04;;;;;;;4.95;3.40;;;;;;;17.74;100.00;100252.78;5015193;28;20087;-76
2021/05/13 04:37:50;;;;;;;7.65;3.88;;;;;;;17.87;100.00;100264.44;5015190;28;20022;-76
2021/05/13 04:40:36;;;;;;;8.77;3.70;;;;;;;17.86;100.00;100268.03;5015325;28;20037;-75
2021/05/13 04:43:21;;;;;;;5.85;4.15;;;;;;;17.97;100.00;100265.66;5014927;28;20451;-75
2021/05/13 04:46:08;;;;;;;7.78;4.03;;;;;;;17.11;100.00;100269.38;5015201;28;20172;-75
2021/05/13 04:49:03;;;;;;;7.43;4.30;;;;;;;17.58;100.00;100262.50;5015211;28;20022;-75
2021/05/13 04:51:49;;;;;;;5.53;4.20;;;;;;;18.03;100.00;100260.00;5001522;28;20138;-74
2021/05/13 04:54:34;;;;;;;10.85;4.53;;;;;;;18.16;100.00;100263.69;5014534;28;20129;-75
2021/05/13 04:57:20;;;;;;;10.20;4.85;;;;;;;18.18;100.00;100264.47;5014748;28;20363;-75
2021/05/13 05:00:09;;;;;;;6.72;4.30;;;;;;;18.10;100.00;100264.03;5014227;28;20116;-74
2021/05/13 05:02:56;;;;;;;8.50;4.70;;;;;;;17.16;100.00;100260.25;5014743;28;20045;-75
2021/05/13 05:05:41;;;;;;;5.55;4.47;;;;;;;17.52;100.00;100260.19;5000007;28;20022;-75
2021/05/13 05:08:27;;;;;;;11.35;4.90;;;;;;;17.94;100.00;100260.50;5002019;28;20032;-74
2021/05/13 05:11:16;;;;;;;10.50;5.30;;;;;;;17.85;100.00;100268.97;5014461;28;20061;-74
2021/05/13 05:14:02;;;;;;;5.60;4.78;;;;;;;17.78;100.00;100265.81;4999924;28;20037;-75
2021/05/13 05:16:48;;;;;;;12.30;5.53;;;;;;;18.22;100.00;100258.06;5013767;28;20110;-74
2021/05/13 05:19:35;;;;;;;7.72;4.38;;;;;;;18.28;100.00;100266.50;5014176;28;20053;-74
2021/05/13 05:22:20;;;;;;;8.02;4.50;;;;;;;18.19;100.00;100266.16;5015584;28;20026;-76
2021/05/13 05:25:07;;;;;;;7.13;4.55;;;;;;;18.02;100.00;100256.53;4999649;28;20056;-75
2021/05/13 05:27:52;;;;;;;10.10;4.60;;;;;;;18.47;100.00;100261.06;5000604;28;20022;-75
2021/05/13 05:30:39;;;;;;;8.20;4.90;;;;;;;18.32;100.00;100264.53;5013958;28;20044;-75
2021/05/13 05:33:25;;;;;;;5.95;4.45;;;;;;;17.70;100.00;100262.72;5014102;28;20034;-74
2021/05/13 05:36:11;;;;;;;7.72;5.13;;;;;;;18.48;100.00;100258.31;5014007;28;20459;-75
2021/05/13 05:38:59;;;;;;;8.02;4.72;;;;;;;18.54;100.00;100257.13;5013667;28;20068;-75
2021/05/13 05:41:44;;;;;;;12.13;4.85;;;;;;;19.19;100.00;100262.09;4999588;28;20036;-75
2021/05/13 05:44:33;;;;;;;7.30;5.38;;;;;;;18.32;100.00;100268.06;5014126;28;20400;-75
2021/05/13 05:47:19;;;;;;;9.65;5.38;;;;;;;19.06;100.00;100266.44;5013495;28;20163;-75
2021/05/13 05:50:05;;;;;;;5.45;4.57;;;;;;;18.15;100.00;100272.59;5014595;28;20022;-75
2021/05/13 05:52:51;;;;;;;8.80;4.90;;;;;;;18.94;100.00;100275.13;5013812;28;20041;-75
2021/05/13 05:55:39;;;;;;;7.88;5.22;;;;;;;18.37;100.00;100275.81;5014209;28;20030;-75
2021/05/13 05:58:25;;;;;;;10.05;7.78;;;;;;;17.05;100.00;100273.22;5013697;28;20021;-75
2021/05/13 06:01:11;;;;;;;12.60;7.53;;;;;;;17.50;100.00;100272.63;4999409;28;20054;-75
2021/05/13 06:03:56;;;;;;;10.82;7.78;;;;;;;18.81;100.00;100274.13;5017788;28;20041;-75
2021/05/13 06:06:42;;;;;;;10.88;7.95;;;;;;;19.28;100.00;100268.69;5004265;28;20340;-76
2021/05/13 06:09:28;;;;;;;9.57;6.93;;;;;;;19.59;100.00;100272.03;5017988;28;20022;-75
2021/05/13 06:12:14;;;;;;;15.15;7.03;;;;;;;19.33;100.00;100264.78;5004209;28;20116;-75
2021/05/13 06:14:59;;;;;;;11.73;7.43;;;;;;;19.83;100.00;100269.66;5018878;28;20030;-76
2021/05/13 06:17:46;;;;;;;10.13;8.00;;;;;;;20.12;100.00;100260.75;5017878;28;20470;-76
2021/05/13 06:20:48;;;;;;;12.90;8.35;;;;;;;18.78;100.00;100271.63;5004734;28;20045;-76
2021/05/13 06:23:45;;;;;;;11.43;8.82;;;;;;;19.62;100.00;100266.56;4997948;28;20375;-75
2021/05/13 06:26:35;;;;;;;17.05;10.90;;;;;;;19.97;100.00;100267.84;4970206;28;20038;-76
2021/05/13 06:29:29;;;;;;;11.13;9.00;;;;;;;19.31;100.00;100272.00;4968106;28;20037;-75
2021/05/13 06:32:17;;;;;;;13.48;10.82;;;;;;;19.22;100.00;100264.56;4954673;28;20034;-76
2021/05/13 06:35:04;;;;;;;12.63;10.00;;;;;;;19.13;100.00;100265.97;4971281;28;20030;-75
2021/05/13 06:37:53;;;;;;;15.07;11.20;;;;;;;19.34;100.00;100263.88;4971959;28;20454;-75
2021/05/13 06:40:38;;;;;;;13.95;11.40;;;;;;;19.18;100.00;100255.91;4978287;28;20072;-74
2021/05/13 06:43:24;;;;;;;15.68;12.82;;;;;;;19.33;100.00;100262.13;4950911;28;21196;-76
2021/05/13 06:46:13;;;;;;;12.40;10.15;;;;;;;19.17;100.00;100253.38;4979882;28;20998;-73
2021/05/13 06:49:02;;;;;;;12.80;10.55;;;;;;;19.51;100.00;100268.13;4973739;28;20064;-75
2021/05/13 06:51:48;;;;;;;12.00;9.68;;;;;;;19.80;100.00;100270.72;4972417;28;20566;-76
2021/05/13 06:54:34;;;;;;;11.32;8.20;;;;;;;19.85;100.00;100271.28;4954392;28;20649;-78
2021/05/13 06:57:20;;;;;;;11.75;9.35;;;;;;;19.19;100.00;100262.97;4972303;28;20463;-77
2021/05/13 07:00:06;;;;;;;11.88;9.00;;;;;;;19.74;100.00;100263.13;4954830;28;20541;-77
2021/05/13 07:02:52;;;;;;;15.15;9.77;;;;;;;19.43;100.00;100252.66;4947485;28;20053;-76
2021/05/13 07:05:39;;;;;;;15.45;9.05;;;;;;;20.00;100.00;100253.50;4974153;28;20461;-77
2021/05/13 07:08:31;;;;;;;13.05;9.48;;;;;;;19.49;100.00;100249.63;4977458;28;21027;-77
2021/05/13 07:11:28;;;;;;;12.07;8.65;;;;;;;20.24;100.00;100247.53;5008630;28;20140;-74
2021/05/13 07:14:14;;;;;;;9.60;8.57;;;;;;;20.12;100.00;100250.97;5006742;28;20036;-74
2021/05/13 07:17:00;;;;;;;14.77;8.57;;;;;;;20.19;100.00;100241.66;4994829;28;20088;-75
2021/05/13 07:19:50;;;;;;;10.75;9.18;;;;;;;20.29;100.00;100241.91;5008629;28;20036;-77
2021/05/13 07:22:36;;;;;;;10.38;8.85;;;;;;;20.22;100.00;100244.13;4992843;28;20030;-75
2021/05/13 07:25:22;;;;;;;10.05;7.80;;;;;;;21.20;100.00;100242.84;4994612;28;20068;-77
2021/05/13 07:28:08;;;;;;;11.70;7.75;;;;;;;21.17;100.00;100243.91;5007775;28;20042;-75
2021/05/13 07:30:54;;;;;;;12.45;7.18;;;;;;;22.07;100.00;100244.66;4993405;28;20120;-75
2021/05/13 07:33:40;;;;;;;10.52;8.45;;;;;;;21.62;100.00;100243.41;5006501;28;20030;-77
2021/05/13 07:36:28;;;;;;;10.95;7.22;;;;;;;21.71;100.00;100249.94;5007006;28;20395;-75
2021/05/13 07:39:15;;;;;;;9.68;6.88;;;;;;;21.38;100.00;100247.75;5007767;28;20034;-76
2021/05/13 07:42:01;;;;;;;9.95;7.32;;;;;;;22.09;100.00;100245.38;5007043;28;20030;-75
2021/05/13 07:44:47;;;;;;;12.75;8.20;;;;;;;20.98;100.00;100246.13;5008130;28;20030;-74
2021/05/13 07:47:37;;;;;;;11.55;8.40;;;;;;;22.00;100.00;100246.06;5006506;28;20426;-75
2021/05/13 07:50:24;;;;;;;11.07;8.05;;;;;;;20.49;100.00;100249.47;5008187;28;20022;-75
2021/05/13 07:53:10;;;;;;;9.38;7.38;;;;;;;21.39;100.00;100248.63;5006611;28;20041;-75
2021/05/13 07:55:56;;;;;;;12.13;8.60;;;;;;;21.82;100.00;100256.22;5007536;28;20038;-75
2021/05/13 07:58:42;;;;;;;10.48;7.30;;;;;;;22.15;100.00;100260.97;4993947;28;20022;-75
2021/05/13 08:01:28;;;;;;;11.02;9.25;;;;;;;19.40;100.00;100263.47;5006569;28;20050;-75
2021/05/13 08:04:14;;;;;;;12.32;9.50;;;;;;;20.56;100.00;100266.72;5006179;28;20048;-75
2021/05/13 08:07:00;;;;;;;11.10;8.52;;;;;;;20.78;100.00;100262.53;5006153;28;20030;-75
2021/05/13 08:09:46;;;;;;;9.75;8.27;;;;;;;19.93;100.00;100270.81;5007328;28;20037;-75
2021/05/13 08:12:31;;;;;;;9.20;7.78;;;;;;;20.94;100.00;100273.91;5004761;28;20041;-75
2021/05/13 08:15:17;;;;;;;8.60;7.75;;;;;;;20.88;100.00;100276.09;5008619;28;20041;-75
2021/05/13 08:18:03;;;;;;;9.57;8.40;;;;;;;20.83;100.00;100280.88;5006256;28;20025;-76
2021/05/13 08:20:49;;;;;;;9.18;7.97;;;;;;;21.02;100.00;100274.25;4993673;28;20183;-75
2021/05/13 08:23:35;;;;;;;10.50;7.75;;;;;;;21.09;100.00;100270.22;4991828;28;20091;-74
2021/05/13 08:26:21;;;;;;;11.07;8.25;;;;;;;21.58;100.00;100273.91;5008031;28;20029;-76
2021/05/13 08:29:06;;;;;;;13.18;8.75;;;;;;;21.15;100.00;100272.50;5006178;28;20041;-75
2021/05/13 08:31:52;;;;;;;13.18;8.88;;;;;;;21.34;100.00;100275.59;4993710;28;20022;-77
2021/05/13 08:34:38;;;;;;;11.23;9.52;;;;;;;21.37;100.00;100280.72;5007024;28;20030;-75
2021/05/13 08:37:24;;;;;;;10.73;8.05;;;;;;;21.81;100.00;100280.31;5006004;28;20026;-74
2021/05/13 08:40:10;;;;;;;12.15;9.10;;;;;;;21.35;100.00;100274.66;5005818;28;20038;-75
2021/05/13 08:42:56;;;;;;;11.13;8.82;;;;;;;21.79;100.00;100276.94;5005326;28;20454;-76
2021/05/13 08:45:42;;;;;;;8.85;7.70;;;;;;;21.91;100.00;100282.22;5006786;28;20052;-75
2021/05/13 08:48:28;;;;;;;9.52;7.72;;;;;;;22.92;100.00;100275.66;5007012;28;20018;-76
2021/05/13 08:51:15;;;;;;;9.70;7.38;;;;;;;22.94;100.00;100279.06;5006812;28;20096;-74
2021/05/13 08:54:01;;;;;;;8.52;6.55;;;;;;;22.09;100.00;100275.59;5004898;28;20104;-75
2021/05/13 08:56:48;;;;;;;8.20;6.65;;;;;;;23.31;100.00;100269.97;4993581;28;20029;-76
2021/05/13 08:59:34;;;;;;;9.45;6.40;;;;;;;24.02;100.00;100275.06;5006331;28;20054;-75
2021/05/13 09:02:21;;;;;;;7.43;6.45;;;;;;;23.54;100.00;100270.03;5007777;28;20105;-73
2021/05/13 09:05:07;;;;;;;10.10;6.30;;;;;;;23.32;100.00;100269.00;5008173;28;20119;-74
2021/05/13 09:07:54;;;;;;;8.52;5.95;;;;;;;23.95;100.00;100265.81;4992908;28;20021;-75
2021/05/13 09:10:40;;;;;;;6.80;5.90;;;;;;;23.30;100.00;100270.94;4991396;28;20788;-75
2021/05/13 09:13:29;;;;;;;10.57;6.78;;;;;;;22.08;100.00;100257.03;4991992;28;20025;-76
2021/05/13 09:16:35;;;;;;;9.65;7.60;;;;;;;21.02;100.00;100249.44;5006684;28;20034;-74
2021/05/13 09:19:21;;;;;;;10.70;7.60;;;;;;;22.07;100.00;100261.50;4992711;28;20073;-75
2021/05/13 09:22:09;;;;;;;8.60;6.55;;;;;;;22.70;100.00;100255.97;5006511;28;20147;-76
2021/05/13 09:24:59;;;;;;;8.38;7.18;;;;;;;22.99;100.00;100257.34;4992069;28;20037;-76
2021/05/13 09:27:50;;;;;;;7.45;6.65;;;;;;;23.62;100.00;100252.41;5008292;28;20466;-74
2021/05/13 09:30:37;;;;;;;6.88;6.07;;;;;;;23.35;100.00;100252.72;4991011;28;20029;-74
2021/05/13 09:33:31;;;;;;;5.38;4.80;;;;;;;22.98;100.00;100247.59;4990072;28;20512;-72
2021/05/13 09:36:21;;;;;;;6.15;4.78;;;;;;;23.51;100.00;100252.41;5005116;28;20038;-74
2021/05/13 09:39:23;;;;;;;6.47;5.03;;;;;;;23.04;100.00;100248.00;5006203;28;20034;-74
2021/05/13 09:42:17;;;;;;;9.27;5.55;;;;;;;23.14;100.00;100240.97;5006059;28;20469;-74
2021/05/13 09:45:05;;;;;;;6.13;5.10;;;;;;;22.98;100.00;100243.13;5005930;28;20044;-72
2021/05/13 09:47:50;;;;;;;6.55;5.25;;;;;;;23.31;100.00;100248.59;4991662;28;20446;-73
2021/05/13 09:50:36;;;;;;;6.30;5.50;;;;;;;23.25;100.00;100246.41;5005959;28;20033;-72
2021/05/13 09:53:22;;;;;;;6.28;5.55;;;;;;;23.20;100.00;100237.03;5005427;28;20033;-76
2021/05/13 09:56:28;;;;;;;6.65;5.25;;;;;;;23.11;100.00;100238.53;5006194;28;20058;-74
2021/05/13 09:59:36;;;;;;;7.80;4.75;;;;;;;23.04;100.00;100244.47;5005929;28;20038;-74
2021/05/13 10:02:22;;;;;;;6.60;4.80;;;;;;;23.27;100.00;100239.09;5005247;28;20367;-73
2021/05/13 10:05:08;;;;;;;5.60;4.28;;;;;;;23.44;100.00;100241.31;5006006;28;20057;-76
2021/05/13 10:07:54;;;;;;;5.88;4.65;;;;;;;23.30;100.00;100230.84;5006480;28;20052;-74
2021/05/13 10:10:41;;;;;;;6.22;4.45;;;;;;;23.43;100.00;100236.94;4993169;28;20026;-75
2021/05/13 10:13:30;;;;;;;4.80;4.30;;;;;;;23.50;100.00;100229.28;5005700;28;20030;-75
2021/05/13 10:16:17;;;;;;;7.03;4.38;;;;;;;22.93;100.00;100231.94;4991865;28;20033;-73
2021/05/13 10:19:16;;;;;;;6.00;4.32;;;;;;;23.59;100.00;100230.41;5004749;28;20026;-72
2021/05/13 10:22:03;;;;;;;4.45;3.80;;;;;;;23.52;100.00;100230.03;5005902;28;20454;-73
2021/05/13 10:25:17;;;;;;;4.32;3.88;;;;;;;23.40;100.00;100223.81;5006853;28;20069;-73
2021/05/13 10:28:04;;;;;;;4.20;3.75;;;;;;;23.80;100.00;100226.88;5005299;28;20029;-72
2021/05/13 10:30:59;;;;;;;4.40;4.00;;;;;;;23.75;100.00;100230.91;5006506;28;20030;-77
2021/05/13 10:33:53;;;;;;;6.35;4.10;;;;;;;23.94;100.00;100228.50;4990746;28;20382;-76
2021/05/13 10:36:39;;;;;;;4.35;3.95;;;;;;;23.66;100.00;100224.44;5005463;28;20037;-76
2021/05/13 10:39:24;;;;;;;4.50;3.75;;;;;;;23.75;100.00;100222.88;5005911;28;20026;-77
2021/05/13 10:42:33;;;;;;;5.28;3.63;;;;;;;23.72;100.00;100234.66;5005532;28;20041;-77
2021/05/13 10:45:25;;;;;;;4.50;3.60;;;;;;;23.98;100.00;100224.59;5005668;28;20506;-75
2021/05/13 10:48:14;;;;;;;3.88;3.50;;;;;;;24.29;96.51;100218.44;5006160;28;20124;-76
2021/05/13 10:51:06;;;;;;;6.78;3.65;;;;;;;24.76;94.64;100221.63;5009641;28;20068;-75
2021/05/13 10:53:52;;;;;;;5.93;3.90;;;;;;;24.14;97.69;100217.88;5008270;28;20435;-75
2021/05/13 10:56:38;;;;;;;8.60;4.15;;;;;;;24.06;98.84;100227.53;5008886;28;20036;-77
2021/05/13 10:59:24;;;;;;;6.95;3.65;;;;;;;23.43;100.00;100218.22;5009305;28;20018;-79
2021/05/13 11:02:37;;;;;;;4.85;3.42;;;;;;;22.97;100.00;100216.50;5007855;28;20565;-76
2021/05/13 11:05:49;;;;;;;5.53;3.50;;;;;;;24.05;98.96;100213.28;5009904;28;20037;-77
2021/05/13 11:08:44;;;;;;;6.72;3.70;;;;;;;24.65;97.11;100204.75;5008229;28;20045;-77
2021/05/13 11:11:30;;;;;;;5.85;3.38;;;;;;;24.28;94.48;100208.72;4995313;28;20128;-76
2021/05/13 11:14:28;;;;;;;4.13;3.42;;;;;;;25.11;92.43;100191.84;5008660;28;20061;-73
2021/05/13 11:17:21;;;;;;;4.90;3.38;;;;;;;24.77;91.08;100196.53;4994358;28;20042;-74
2021/05/13 11:20:29;;;;;;;3.85;3.40;;;;;;;24.68;90.91;100202.69;5008758;28;20033;-73
2021/05/13 11:23:19;;;;;;;5.63;3.10;;;;;;;24.79;87.78;100202.59;4992713;28;20069;-73
2021/05/13 11:26:08;;;;;;;3.53;3.13;;;;;;;24.65;90.38;100191.34;4994381;28;20025;-73
2021/05/13 11:28:59;;;;;;;5.78;3.40;;;;;;;25.32;86.91;100195.41;4993870;28;20187;-73
2021/05/13 11:31:52;;;;;;;3.85;2.75;;;;;;;25.25;88.03;100195.03;4993525;28;20489;-72
2021/05/13 11:34:44;;;;;;;4.03;3.15;;;;;;;24.65;90.44;100188.66;4993115;28;20026;-73
2021/05/13 11:37:39;;;;;;;6.82;3.85;;;;;;;25.15;89.48;100191.44;5007318;28;20021;-72
2021/05/13 11:40:28;;;;;;;4.75;3.22;;;;;;;25.03;91.11;100186.28;5009248;28;20030;-71
2021/05/13 11:43:18;;;;;;;5.00;3.05;;;;;;;24.95;89.40;100186.09;5006232;28;20422;-72
2021/05/13 11:46:06;;;;;;;8.30;3.45;;;;;;;25.23;85.05;100185.44;5008339;28;20481;-73
2021/05/13 11:48:53;;;;;;;4.60;3.00;;;;;;;25.29;86.36;100185.78;5009134;28;20061;-75
2021/05/13 11:51:39;;;;;;;6.63;3.38;;;;;;;25.50;85.79;100183.91;5006789;28;20124;-75
2021/05/13 11:54:24;;;;;;;5.00;3.28;;;;;;;25.73;86.54;100181.91;5006744;28;20065;-76
2021/05/13 11:57:10;;;;;;;5.03;3.22;;;;;;;25.67;84.33;100179.75;5008809;28;20374;-76
2021/05/13 11:59:56;;;;;;;3.70;2.95;;;;;;;25.37;85.73;100185.13;5008102;28;20119;-77
2021/05/13 12:02:42;;;;;;;3.20;2.90;;;;;;;25.58;79.81;100176.06;5007179;28;20058;-75
2021/05/13 12:05:28;;;;;;;3.28;2.90;;;;;;;25.13;80.37;100169.28;5006729;28;20030;-74
2021/05/13 12:08:15;;;;;;;5.93;2.95;;;;;;;25.38;80.14;100168.03;5008230;28;20033;-73
2021/05/13 12:11:23;;;;;;;3.35;2.60;;;;;;;24.99;82.50;100174.97;4993739;28;20030;-75
2021/05/13 12:14:11;;;;;;;7.70;3.30;;;;;;;24.58;86.12;100172.22;5006600;28;20026;-76
2021/05/13 12:17:06;;;;;;;3.42;3.10;;;;;;;25.07;85.06;100169.78;5006779;28;20398;-75
2021/05/13 12:19:51;;;;;;;3.53;2.92;;;;;;;25.12;85.17;100167.56;5008752;28;20030;-75
2021/05/13 12:22:38;;;;;;;3.42;3.13;;;;;;;24.68;86.88;100159.81;5006136;28;20042;-75
2021/05/13 12:25:24;;;;;;;3.35;2.95;;;;;;;25.87;82.17;100160.03;5008104;28;20096;-74
2021/05/13 12:28:10;;;;;;;3.38;2.90;;;;;;;25.73;82.50;100153.25;5007519;28;20033;-75
2021/05/13 12:30:56;;;;;;;3.40;3.05;;;;;;;25.54;84.95;100158.53;4992975;28;20034;-75
2021/05/13 12:33:45;;;;;;;5.20;3.35;;;;;;;26.41;80.64;100155.94;4991559;28;20462;-75
2021/05/13 12:36:36;;;;;;;6.55;3.65;;;;;;;26.13;83.02;100154.09;5006466;28;20034;-73
2021/05/13 12:39:30;;;;;;;6.13;3.08;;;;;;;26.42;81.25;100156.78;4994030;28;20037;-75
2021/05/13 12:42:27;;;;;;;4.32;2.90;;;;;;;26.19;80.90;100160.72;5005917;28;20045;-75
2021/05/13 12:45:24;;;;;;;6.65;3.20;;;;;;;26.42;80.61;100159.47;4993741;28;20492;-76
2021/05/13 12:48:11;;;;;;;4.72;3.30;;;;;;;25.57;83.45;100160.94;5006260;28;20045;-75
2021/05/13 12:51:05;;;;;;;5.95;3.65;;;;;;;25.65;83.21;100165.63;5007462;28;20037;-75
2021/05/13 12:53:58;;;;;;;6.55;4.30;;;;;;;25.61;82.33;100162.38;4991648;28;20026;-75
2021/05/13 12:56:44;;;;;;;4.85;4.38;;;;;;;25.58;82.09;100151.03;5007538;28;20051;-75
2021/05/13 12:59:30;;;;;;;3.88;3.25;;;;;;;25.27;84.39;100149.34;5005825;28;20061;-75